Time;durP1;ratioP1;P1;durP2;ratioP2;P2;SDS_P1;SDS_P2;PMS_P1;PMS_P2;Temp;Humidity;BMP_temperature;BMP_pressure;BME280_temperature;BME280_humidity;BME280_pressure;Samples;Min_cycle;Max_cycle;Signal;HPM_P1;HPM_P2
2023/08/21 00:00:35;;;;;;;10.20;9.20;;;;;;;24.31;100.00;100877.28;4994958;28;20473;-73
2023/08/21 00:03:11;;;;;;;9.52;8.63;;;;;;;24.27;100.00;100875.88;5009994;28;20054;-73
2023/08/21 00:05:40;;;;;;;11.15;9.45;;;;;;;24.25;100.00;100888.69;5008709;28;20081;-72
2023/08/21 00:08:10;;;;;;;11.73;10.20;;;;;;;24.21;100.00;100878.31;5013286;28;20042;-73
2023/08/21 00:10:40;;;;;;;;;;;;;;;24.21;100.00;100889.13;4979112;28;20607;-73
2023/08/21 00:13:10;;;;;;;10.75;9.32;;;;;;;24.18;100.00;100878.59;5013557;28;20396;-74
2023/08/21 00:15:39;;;;;;;11.68;9.38;;;;;;;24.10;100.00;100879.31;5004466;28;20065;-73
2023/08/21 00:18:09;;;;;;;10.87;9.83;;;;;;;24.13;100.00;100881.75;4997444;28;20105;-72
2023/08/21 00:20:37;;;;;;;;;;;;;;;24.10;100.00;100887.44;5011823;28;20085;-73
2023/08/21 00:23:05;;;;;;;13.20;9.82;;;;;;;24.04;100.00;100888.03;5012280;28;19922;-74
2023/08/21 00:25:34;;;;;;;12.13;9.18;;;;;;;24.04;100.00;100893.47;5008011;28;20176;-73
2023/08/21 00:28:02;;;;;;;10.20;9.18;;;;;;;24.01;100.00;100883.78;4978372;28;20078;-74
2023/08/21 00:30:32;;;;;;;;;;;;;;;24.01;100.00;100877.50;5013989;28;20068;-74
2023/08/21 00:33:01;;;;;;;13.07;8.93;;;;;;;23.96;100.00;100891.47;4991682;28;20019;-73
2023/08/21 00:35:31;;;;;;;10.85;9.75;;;;;;;23.93;100.00;100886.34;4987343;28;20422;-73
2023/08/21 00:37:59;;;;;;;;;;;;;;;23.90;100.00;100880.41;4995869;28;20057;-73
2023/08/21 00:40:31;;;;;;;13.13;9.57;;;;;;;23.89;100.00;100879.53;4995205;28;20263;-73
2023/08/21 00:43:00;;;;;;;11.00;9.80;;;;;;;23.87;100.00;100886.09;4978042;28;20076;-73
2023/08/21 00:45:31;;;;;;;11.15;9.75;;;;;;;23.82;100.00;100878.41;5001827;28;20050;-73
2023/08/21 00:48:02;;;;;;;11.45;9.48;;;;;;;23.78;100.00;100885.94;4973680;28;20054;-73
2023/08/21 00:50:35;;;;;;;11.48;9.75;;;;;;;23.72;100.00;100883.84;4987070;28;20042;-73
2023/08/21 00:53:05;;;;;;;11.63;9.35;;;;;;;23.69;100.00;100883.28;4994935;28;20100;-73
2023/08/21 00:55:34;;;;;;;10.52;9.52;;;;;;;23.64;100.00;100874.72;4986437;28;20052;-73
2023/08/21 00:58:03;;;;;;;10.80;9.73;;;;;;;23.62;100.00;100876.72;5009393;28;20050;-73
2023/08/21 01:00:32;;;;;;;12.63;9.65;;;;;;;23.58;100.00;100876.19;4989827;28;20068;-74
2023/08/21 01:03:03;;;;;;;11.13;10.02;;;;;;;23.56;100.00;100864.66;4990780;28;20050;-73
2023/08/21 01:05:35;;;;;;;11.13;10.02;;;;;;;23.55;100.00;100875.59;5003256;28;20061;-73
2023/08/21 01:08:14;;;;;;;11.85;9.98;;;;;;;23.50;100.00;100873.28;4980660;28;20077;-73
2023/08/21 01:10:51;;;;;;;12.30;10.25;;;;;;;23.40;100.00;100867.06;4973078;28;20061;-74
2023/08/21 01:13:50;;;;;;;11.50;9.63;;;;;;;23.38;100.00;100886.13;4998060;28;20106;-73
2023/08/21 01:16:21;;;;;;;10.70;9.65;;;;;;;23.31;100.00;100874.16;5006441;28;20045;-73
2023/08/21 01:18:50;;;;;;;11.00;9.65;;;;;;;23.36;100.00;100888.09;5029444;28;20114;-73
2023/08/21 01:21:26;;;;;;;13.95;10.27;;;;;;;23.32;100.00;100889.38;4995388;28;20260;-73
2023/08/21 01:23:56;;;;;;;11.82;9.98;;;;;;;23.27;100.00;100883.56;4989846;28;20045;-74
2023/08/21 01:26:27;;;;;;;11.40;9.82;;;;;;;23.28;100.00;100885.28;4971958;28;20526;-73
2023/08/21 01:28:56;;;;;;;10.93;9.20;;;;;;;23.24;100.00;100897.34;4975895;28;20042;-73
2023/08/21 01:31:31;;;;;;;11.65;10.23;;;;;;;23.22;100.00;100891.22;4994093;28;20062;-74
2023/08/21 01:34:06;;;;;;;12.35;10.25;;;;;;;23.17;100.00;100893.47;4998431;28;20052;-72
2023/08/21 01:36:36;;;;;;;12.48;10.35;;;;;;;23.11;100.00;100894.06;5012513;28;20057;-73
2023/08/21 01:39:05;;;;;;;12.43;9.37;;;;;;;23.09;100.00;100896.06;4988513;28;20113;-74
2023/08/21 01:41:34;;;;;;;10.60;9.52;;;;;;;23.10;100.00;100903.16;4979890;28;20485;-73
2023/08/21 01:44:02;;;;;;;11.65;10.45;;;;;;;23.11;100.00;100894.06;4989795;28;20046;-73
2023/08/21 01:46:31;;;;;;;10.50;9.50;;;;;;;23.07;100.00;100898.88;5021282;28;20052;-73
2023/08/21 01:49:01;;;;;;;11.25;9.77;;;;;;;23.04;100.00;100896.47;5025307;28;20065;-73
2023/08/21 01:51:31;;;;;;;13.02;10.40;;;;;;;23.01;100.00;100901.28;4966580;28;20050;-73
2023/08/21 01:54:05;;;;;;;10.75;9.68;;;;;;;22.97;100.00;100897.19;4996485;28;20074;-73
2023/08/21 01:56:34;;;;;;;11.23;10.13;;;;;;;22.92;100.00;100899.44;4990176;28;20516;-73
2023/08/21 01:59:02;;;;;;;12.63;10.43;;;;;;;22.89;100.00;100897.00;5016261;28;20548;-73
2023/08/21 02:01:32;;;;;;;12.95;10.18;;;;;;;22.82;100.00;100893.16;5015263;28;20038;-74
2023/08/21 02:04:04;;;;;;;11.80;9.90;;;;;;;22.84;100.00;100897.41;5014506;28;20045;-75
2023/08/21 02:06:33;;;;;;;12.00;9.45;;;;;;;22.80;100.00;100898.72;4996390;28;20332;-73
2023/08/21 02:09:01;;;;;;;11.13;10.02;;;;;;;22.73;100.00;100889.41;5018530;28;20518;-73
2023/08/21 02:11:32;;;;;;;11.88;10.63;;;;;;;22.76;100.00;100902.63;5014658;28;20048;-73
2023/08/21 02:14:02;;;;;;;13.40;10.93;;;;;;;22.72;100.00;100904.75;5001213;28;20046;-73
2023/08/21 02:16:30;;;;;;;12.40;10.45;;;;;;;22.53;100.00;100872.28;4999186;28;20057;-73
2023/08/21 02:18:59;;;;;;;14.02;10.80;;;;;;;22.67;100.00;100900.75;4988437;28;20077;-73
2023/08/21 02:21:32;;;;;;;11.57;9.93;;;;;;;22.67;100.00;100890.78;4999251;28;20078;-73
2023/08/21 02:24:02;;;;;;;13.73;10.35;;;;;;;22.59;100.00;100885.25;4995147;28;20046;-73
2023/08/21 02:26:33;;;;;;;11.45;10.00;;;;;;;22.65;100.00;100898.22;4986340;28;20497;-72
2023/08/21 02:29:03;;;;;;;11.02;9.77;;;;;;;22.60;100.00;100900.44;5011298;28;20060;-73
2023/08/21 02:31:32;;;;;;;11.75;9.88;;;;;;;22.60;100.00;100894.19;5011514;28;20061;-74
2023/08/21 02:34:01;;;;;;;13.60;10.35;;;;;;;22.58;100.00;100910.53;5010502;28;20046;-72
2023/08/21 02:36:29;;;;;;;10.48;9.38;;;;;;;22.57;100.00;100910.66;4990530;28;20136;-73
2023/08/21 02:38:59;;;;;;;13.35;10.27;;;;;;;22.48;100.00;100884.50;4992161;28;20063;-74
2023/08/21 02:41:29;;;;;;;11.60;9.95;;;;;;;22.59;100.00;100903.28;4997142;28;20049;-72
2023/08/21 02:44:00;;;;;;;13.10;10.07;;;;;;;22.58;100.00;100902.44;5013852;28;20074;-73
2023/08/21 02:46:33;;;;;;;17.60;11.25;;;;;;;22.57;100.00;100905.25;4989825;28;20112;-73
2023/08/21 02:49:01;;;;;;;11.27;9.93;;;;;;;22.59;100.00;100904.13;4980561;28;20070;-73
2023/08/21 02:51:29;;;;;;;11.27;10.10;;;;;;;22.58;100.00;100912.38;4999206;28;20565;-74
2023/08/21 02:53:59;;;;;;;12.35;10.18;;;;;;;22.53;100.00;100910.06;4995862;28;20511;-72
2023/08/21 02:56:29;;;;;;;12.77;10.75;;;;;;;22.55;100.00;100902.69;4986065;28;20045;-73
2023/08/21 02:58:59;;;;;;;12.55;10.32;;;;;;;22.51;100.00;100908.53;4995000;28;20077;-73
2023/08/21 03:01:28;;;;;;;12.23;10.93;;;;;;;22.47;100.00;100904.38;4983295;28;20045;-72
2023/08/21 03:03:56;;;;;;;12.00;9.63;;;;;;;22.44;100.00;100902.81;5011458;28;20038;-74
2023/08/21 03:06:24;;;;;;;11.43;10.20;;;;;;;22.45;100.00;100903.66;4989961;28;20042;-72
2023/08/21 03:08:55;;;;;;;13.40;10.65;;;;;;;22.45;100.00;100903.66;4981183;28;20045;-73
2023/08/21 03:11:25;;;;;;;11.80;10.38;;;;;;;22.47;100.00;100909.78;4992575;28;20042;-73
2023/08/21 03:13:54;;;;;;;12.02;10.50;;;;;;;22.36;100.00;100892.69;4978876;28;20042;-72
2023/08/21 03:16:24;;;;;;;12.45;10.45;;;;;;;22.41;100.00;100908.47;4986640;28;20050;-75
2023/08/21 03:19:00;;;;;;;10.63;9.63;;;;;;;22.36;100.00;100902.63;4995096;28;20049;-72
2023/08/21 03:21:32;;;;;;;11.30;9.80;;;;;;;22.36;100.00;100905.31;4993234;28;20045;-73
2023/08/21 03:24:01;;;;;;;12.25;10.13;;;;;;;22.34;100.00;100904.63;4999565;28;20137;-72
2023/08/21 03:26:36;;;;;;;11.98;10.45;;;;;;;22.34;100.00;100904.63;4989364;28;20050;-73
2023/08/21 03:29:06;;;;;;;12.45;10.82;;;;;;;22.26;100.00;100901.72;4996752;28;20104;-73
2023/08/21 03:31:34;;;;;;;11.40;10.23;;;;;;;22.29;100.00;100906.84;4973766;28;20046;-73
2023/08/21 03:34:04;;;;;;;12.00;10.15;;;;;;;22.28;100.00;100910.53;4994317;28;20137;-74
2023/08/21 03:36:33;;;;;;;11.52;10.32;;;;;;;22.26;100.00;100912.53;4986706;28;20050;-73
2023/08/21 03:39:07;;;;;;;12.98;10.02;;;;;;;22.24;100.00;100903.69;5011406;28;20061;-74
2023/08/21 03:41:40;;;;;;;11.55;10.38;;;;;;;22.21;100.00;100909.34;4991708;28;20049;-73
2023/08/21 03:44:10;;;;;;;11.65;10.45;;;;;;;22.18;100.00;100913.19;4983552;28;20081;-73
2023/08/21 03:46:40;;;;;;;12.75;11.35;;;;;;;22.18;100.00;100920.44;4982734;28;20069;-73
2023/08/21 03:49:10;;;;;;;12.00;10.25;;;;;;;22.14;100.00;100909.06;4997578;28;20042;-73
2023/08/21 03:51:40;;;;;;;12.18;10.45;;;;;;;22.09;100.00;100910.44;4960093;28;20129;-73
2023/08/21 03:54:11;;;;;;;11.43;10.27;;;;;;;22.08;100.00;100919.50;4979035;28;20042;-78
2023/08/21 03:56:39;;;;;;;12.18;10.27;;;;;;;22.04;100.00;100908.97;4979542;28;20049;-73
2023/08/21 03:59:08;;;;;;;12.77;10.23;;;;;;;21.99;100.00;100900.47;5007973;28;20046;-73
2023/08/21 04:01:36;;;;;;;11.75;10.15;;;;;;;22.04;100.00;100908.97;4974264;28;20054;-73
2023/08/21 04:04:12;;;;;;;12.63;10.52;;;;;;;22.05;100.00;100915.22;4958183;28;20043;-73
2023/08/21 04:06:42;;;;;;;11.38;10.27;;;;;;;22.03;100.00;100917.22;4966185;28;20613;-72
2023/08/21 04:09:10;;;;;;;10.85;9.77;;;;;;;22.06;100.00;100927.72;5004058;28;20065;-73
2023/08/21 04:11:40;;;;;;;12.55;9.70;;;;;;;21.99;100.00;100913.94;4993497;28;20042;-73
2023/08/21 04:14:11;;;;;;;11.80;10.15;;;;;;;22.07;100.00;100928.59;4971837;28;20061;-73
2023/08/21 04:16:39;;;;;;;13.65;10.73;;;;;;;22.05;100.00;100924.19;4987749;28;20056;-74
2023/08/21 04:19:09;;;;;;;12.57;10.40;;;;;;;21.97;100.00;100909.63;4960254;28;20053;-73
2023/08/21 04:21:37;;;;;;;14.18;10.80;;;;;;;21.98;100.00;100916.72;4975351;28;20101;-73
2023/08/21 04:24:08;;;;;;;13.32;10.95;;;;;;;21.99;100.00;100921.16;4979659;28;20077;-72
2023/08/21 04:26:36;;;;;;;13.23;10.15;;;;;;;21.94;100.00;100917.97;4967821;28;20093;-73
2023/08/21 04:29:04;;;;;;;12.23;10.82;;;;;;;22.01;100.00;100927.28;4962638;28;20542;-73
2023/08/21 04:31:33;;;;;;;12.45;11.02;;;;;;;22.00;100.00;100929.13;4972474;28;20081;-74
2023/08/21 04:34:03;;;;;;;11.48;10.32;;;;;;;21.98;100.00;100933.78;4978892;28;20040;-73
2023/08/21 04:36:40;;;;;;;12.57;10.07;;;;;;;22.00;100.00;100934.53;4967357;28;20057;-73
2023/08/21 04:39:11;;;;;;;11.20;9.93;;;;;;;22.00;100.00;100934.53;4976505;28;20129;-73
2023/08/21 04:41:40;;;;;;;12.00;9.70;;;;;;;21.95;100.00;100935.88;4976920;28;20064;-73
2023/08/21 04:44:16;;;;;;;10.98;9.85;;;;;;;21.96;100.00;100927.66;4979918;28;20599;-74
2023/08/21 04:46:49;;;;;;;11.10;10.00;;;;;;;21.97;100.00;100937.44;4974720;28;20054;-74
2023/08/21 04:49:21;;;;;;;10.80;9.63;;;;;;;22.00;100.00;100947.16;4990341;28;20120;-74
2023/08/21 04:51:50;;;;;;;15.38;10.25;;;;;;;21.98;100.00;100939.16;4994897;28;20046;-74
2023/08/21 04:54:24;;;;;;;12.20;9.98;;;;;;;21.97;100.00;100942.00;5018135;28;20049;-73
2023/08/21 04:56:53;;;;;;;10.60;9.55;;;;;;;21.94;100.00;100945.81;4979680;28;20101;-74
2023/08/21 04:59:24;;;;;;;12.13;9.60;;;;;;;21.92;100.00;100939.69;4978904;28;20140;-73
2023/08/21 05:01:52;;;;;;;11.63;9.30;;;;;;;21.92;100.00;100941.53;5007311;28;20054;-75
2023/08/21 05:04:22;;;;;;;11.65;9.75;;;;;;;21.86;100.00;100933.97;5005280;28;20069;-74
2023/08/21 05:06:58;;;;;;;;;;;;;;;21.99;100.00;100945.41;4988272;28;21371;-74
2023/08/21 05:09:30;;;;;;;11.95;10.10;;;;;;;21.93;100.00;100943.22;5013711;28;19922;-72
2023/08/21 05:11:58;;;;;;;12.13;9.98;;;;;;;21.94;100.00;100945.81;4992162;28;20058;-73
2023/08/21 05:14:27;;;;;;;12.20;10.10;;;;;;;21.93;100.00;100946.78;4980544;28;20110;-72
2023/08/21 05:16:55;;;;;;;12.43;9.98;;;;;;;21.99;100.00;100953.50;5001883;28;20058;-74
2023/08/21 05:19:23;;;;;;;15.77;10.07;;;;;;;21.98;100.00;100946.41;4964458;28;20049;-74
2023/08/21 05:21:55;;;;;;;13.55;9.82;;;;;;;22.02;100.00;100954.13;5011210;28;20045;-74
2023/08/21 05:24:29;;;;;;;10.55;9.35;;;;;;;22.05;100.00;100948.44;4972882;28;20046;-73
2023/08/21 05:27:04;;;;;;;11.35;9.63;;;;;;;22.04;100.00;100952.13;4986475;28;20524;-73
2023/08/21 05:29:32;;;;;;;11.68;9.68;;;;;;;22.17;100.00;100962.75;5014676;28;20045;-73
2023/08/21 05:32:01;;;;;;;12.32;9.27;;;;;;;22.23;100.00;100961.34;4995782;28;20052;-73
2023/08/21 05:34:29;;;;;;;10.32;9.32;;;;;;;22.30;100.00;100959.84;4975660;28;20110;-73
2023/08/21 05:36:57;;;;;;;10.93;9.30;;;;;;;22.32;100.00;100966.81;4990082;28;20136;-73
2023/08/21 05:39:33;;;;;;;10.57;9.10;;;;;;;22.42;100.00;100968.69;4980760;28;20049;-75
2023/08/21 05:42:02;;;;;;;10.75;8.93;;;;;;;22.42;100.00;100969.53;4989839;28;20054;-74
2023/08/21 05:44:32;;;;;;;10.80;9.23;;;;;;;22.53;100.00;100966.75;4997016;28;20057;-74
2023/08/21 05:47:00;;;;;;;9.70;8.32;;;;;;;22.57;100.00;100973.59;4955888;28;20062;-74
2023/08/21 05:49:33;;;;;;;;;;;;;;;22.64;100.00;100976.63;4980808;28;20092;-73
2023/08/21 05:52:02;;;;;;;11.95;8.88;;;;;;;22.74;100.00;100972.97;4979241;28;19921;-74
2023/08/21 05:54:35;;;;;;;9.70;8.15;;;;;;;22.89;100.00;100978.03;4977064;28;20416;-73
2023/08/21 05:57:04;;;;;;;10.43;8.60;;;;;;;23.04;100.00;100974.81;4967245;28;20050;-75
2023/08/21 05:59:36;;;;;;;12.57;9.35;;;;;;;23.17;100.00;100976.38;4976127;28;20081;-74
2023/08/21 06:02:05;;;;;;;11.57;8.25;;;;;;;23.18;100.00;100962.75;4993847;28;20467;-74
2023/08/21 06:04:33;;;;;;;10.23;8.32;;;;;;;23.33;100.00;100965.88;4993796;28;20046;-74
2023/08/21 06:07:03;;;;;;;10.38;8.80;;;;;;;23.40;100.00;100967.91;4970382;28;20045;-74
2023/08/21 06:09:33;;;;;;;8.90;8.00;;;;;;;23.41;100.00;100969.63;4974448;28;20070;-73
2023/08/21 06:12:02;;;;;;;11.07;8.20;;;;;;;23.45;100.00;100981.84;4960679;28;20046;-73
2023/08/21 06:14:32;;;;;;;9.60;8.30;;;;;;;23.31;100.00;100963.31;4990009;28;20581;-74
2023/08/21 06:17:02;;;;;;;10.32;8.10;;;;;;;23.38;100.00;100971.75;4968450;28;20052;-75
2023/08/21 06:19:32;;;;;;;8.77;7.97;;;;;;;23.38;100.00;100979.84;4958553;28;20080;-72
2023/08/21 06:22:03;;;;;;;9.50;7.88;;;;;;;23.36;100.00;100971.03;4978079;28;20068;-73
2023/08/21 06:24:33;;;;;;;10.10;8.55;;;;;;;23.42;100.00;100974.03;4972646;28;20057;-73
2023/08/21 06:27:04;;;;;;;10.50;8.15;;;;;;;23.54;100.00;100980.19;4968424;28;20093;-73
2023/08/21 06:29:40;;;;;;;10.73;8.77;;;;;;;23.65;100.00;100974.63;4968590;28;20062;-72
2023/08/21 06:32:08;;;;;;;10.63;7.90;;;;;;;23.74;100.00;100972.94;4972636;28;20057;-73
2023/08/21 06:34:38;;;;;;;14.67;8.20;;;;;;;24.02;100.00;100971.19;4976590;28;20049;-73
2023/08/21 06:37:09;;;;;;;9.60;8.05;;;;;;;24.30;100.00;100972.16;4975681;28;20480;-74
2023/08/21 06:39:39;;;;;;;11.00;7.93;;;;;;;24.64;100.00;100972.50;4976957;28;20050;-73
2023/08/21 06:42:07;;;;;;;11.85;7.38;;;;;;;24.92;100.00;100974.22;4995131;28;20051;-74
2023/08/21 06:44:42;;;;;;;8.60;7.70;;;;;;;25.16;100.00;100974.53;4997201;28;20668;-73
2023/08/21 06:47:11;;;;;;;8.17;7.37;;;;;;;25.49;100.00;100975.75;4976296;28;20074;-74
2023/08/21 06:49:41;;;;;;;10.50;7.55;;;;;;;25.68;100.00;100977.47;4979652;28;20034;-74
2023/08/21 06:52:12;;;;;;;9.90;7.50;;;;;;;25.78;100.00;100970.13;4995607;28;20050;-74
2023/08/21 06:54:43;;;;;;;14.27;7.72;;;;;;;25.96;100.00;100980.09;4979814;28;20049;-74
2023/08/21 06:57:10;;;;;;;9.05;6.95;;;;;;;26.20;100.00;100989.28;4974551;28;20090;-75
2023/08/21 06:59:40;;;;;;;9.32;7.32;;;;;;;26.30;97.90;100985.63;4976634;28;20140;-74
2023/08/21 07:02:09;;;;;;;8.00;7.20;;;;;;;26.43;100.00;100980.66;4981158;28;20069;-73
2023/08/21 07:04:40;;;;;;;8.93;7.05;;;;;;;26.64;98.78;100972.94;4994186;28;20038;-73
2023/08/21 07:07:09;;;;;;;11.80;7.00;;;;;;;26.90;99.81;100972.91;4975081;28;20137;-75
2023/08/21 07:09:38;;;;;;;8.85;7.60;;;;;;;27.01;92.44;100974.50;4994322;28;20133;-74
2023/08/21 07:12:08;;;;;;;8.35;7.18;;;;;;;27.05;95.67;100979.47;4976631;28;20096;-74
2023/08/21 07:14:36;;;;;;;10.15;7.75;;;;;;;27.09;96.92;100971.78;4961967;28;20251;-75
2023/08/21 07:17:05;;;;;;;9.02;7.07;;;;;;;27.09;97.28;100977.22;4977423;28;20061;-73
2023/08/21 07:19:38;;;;;;;9.38;6.80;;;;;;;27.28;96.61;100986.97;4990188;28;20049;-73
2023/08/21 07:22:17;;;;;;;8.65;7.00;;;;;;;27.53;91.93;100977.88;4993046;28;20542;-74
2023/08/21 07:24:47;;;;;;;10.98;7.40;;;;;;;27.75;92.59;100984.56;4979083;28;20038;-73
2023/08/21 07:27:16;;;;;;;9.88;7.32;;;;;;;27.83;94.67;100973.69;4992820;28;20049;-72
2023/08/21 07:29:44;;;;;;;12.38;7.03;;;;;;;28.03;87.41;100979.63;4977501;28;20546;-74
2023/08/21 07:32:13;;;;;;;8.27;6.50;;;;;;;28.14;85.90;100977.41;4978538;28;20072;-76
2023/08/21 07:34:42;;;;;;;9.60;7.05;;;;;;;28.24;84.50;100977.25;4960979;28;20073;-73
2023/08/21 07:37:11;;;;;;;7.90;6.25;;;;;;;28.32;88.18;100973.69;4996204;28;20053;-76
2023/08/21 07:39:40;;;;;;;10.15;6.70;;;;;;;28.23;91.30;100976.41;4946151;28;20043;-75
2023/08/21 07:42:12;;;;;;;9.10;6.90;;;;;;;28.30;89.41;100962.97;4975845;28;20049;-75
2023/08/21 07:44:45;;;;;;;9.50;7.03;;;;;;;28.44;88.37;100959.53;4978117;28;20482;-74
2023/08/21 07:47:13;;;;;;;8.25;6.90;;;;;;;28.64;86.72;100965.44;4973308;28;20479;-74
2023/08/21 07:49:42;;;;;;;8.23;7.28;;;;;;;28.88;83.38;100968.09;4976621;28;20057;-74
2023/08/21 07:52:10;;;;;;;7.93;7.00;;;;;;;28.81;85.05;100967.06;4978861;28;20836;-74
2023/08/21 07:54:42;;;;;;;8.10;6.97;;;;;;;28.71;86.47;100960.97;4974508;28;20046;-75
2023/08/21 07:57:10;;;;;;;8.05;6.97;;;;;;;28.81;81.90;100960.78;4973435;28;20100;-76
2023/08/21 07:59:41;;;;;;;11.45;6.90;;;;;;;29.13;78.73;100971.53;4976226;28;20418;-74
2023/08/21 08:02:13;;;;;;;7.97;6.70;;;;;;;29.36;78.89;100968.84;4957910;28;20102;-74
2023/08/21 08:04:43;;;;;;;10.57;6.72;;;;;;;29.50;77.94;100970.00;4972855;28;20078;-74
2023/08/21 08:07:12;;;;;;;;;;;;;;;29.54;76.10;100950.34;4978833;28;20054;-74
2023/08/21 08:09:41;;;;;;;8.73;7.00;;;;;;;29.82;73.52;100968.91;4991969;28;20310;-74
2023/08/21 08:12:10;;;;;;;7.28;6.57;;;;;;;29.98;71.89;100968.78;4956108;28;20730;-75
2023/08/21 08:14:40;;;;;;;9.50;6.85;;;;;;;29.86;74.06;100946.50;4976965;28;20066;-74
2023/08/21 08:17:17;;;;;;;7.85;7.05;;;;;;;29.86;72.73;100964.78;4977400;28;20051;-74
2023/08/21 08:19:46;;;;;;;10.23;7.18;;;;;;;29.92;73.43;100966.75;4975417;28;20053;-74
2023/08/21 08:22:14;;;;;;;7.95;7.15;;;;;;;29.68;73.03;100965.09;4958144;28;20058;-73
2023/08/21 08:24:45;;;;;;;11.60;7.82;;;;;;;29.42;74.92;100948.22;4975304;28;20070;-73
2023/08/21 08:27:17;;;;;;;11.27;7.30;;;;;;;29.46;75.72;100972.22;4990551;28;20495;-75
2023/08/21 08:29:47;;;;;;;11.13;7.70;;;;;;;29.41;75.92;100963.75;4969231;28;20455;-75
2023/08/21 08:32:20;;;;;;;9.90;7.43;;;;;;;29.42;75.54;100959.16;4960356;28;20054;-77
2023/08/21 08:34:51;;;;;;;10.52;6.70;;;;;;;29.41;76.48;100966.47;4975039;28;20043;-75
2023/08/21 08:37:20;;;;;;;11.20;6.78;;;;;;;29.40;76.29;100956.59;4977362;28;20560;-74
2023/08/21 08:39:51;;;;;;;10.98;6.90;;;;;;;29.53;75.14;100950.53;4968119;28;20054;-75
2023/08/21 08:42:22;;;;;;;8.68;6.68;;;;;;;29.65;75.51;100954.53;4980879;28;20090;-75
2023/08/21 08:44:55;;;;;;;8.50;6.78;;;;;;;29.80;74.68;100957.31;4994638;28;20045;-75
2023/08/21 08:47:38;;;;;;;9.70;7.07;;;;;;;29.96;74.06;100963.47;5009679;28;20088;-73
2023/08/21 08:50:09;;;;;;;8.43;7.43;;;;;;;29.86;74.53;100964.78;4993088;28;20097;-74
2023/08/21 08:52:40;;;;;;;7.57;6.72;;;;;;;29.95;74.98;100959.03;4991023;28;20053;-74
2023/08/21 08:55:18;;;;;;;8.15;6.65;;;;;;;30.28;73.47;100956.88;5013100;28;20092;-73
2023/08/21 08:57:46;;;;;;;8.68;6.82;;;;;;;30.63;69.21;100958.06;4993170;28;20053;-75
2023/08/21 09:00:19;;;;;;;7.53;6.80;;;;;;;30.94;67.43;100952.38;4983743;28;20838;-75
2023/08/21 09:02:50;;;;;;;7.03;6.35;;;;;;;30.98;67.60;100945.50;4996119;28;20056;-74
2023/08/21 09:05:22;;;;;;;13.05;7.28;;;;;;;30.90;67.04;100952.94;4996707;28;20046;-74
2023/08/21 09:08:05;;;;;;;11.85;7.28;;;;;;;30.44;69.45;100950.41;5010321;28;20506;-74
2023/08/21 09:10:34;;;;;;;11.40;7.78;;;;;;;29.41;74.78;100952.84;4975768;28;20461;-74
2023/08/21 09:13:02;;;;;;;9.00;7.47;;;;;;;28.69;82.08;100941.19;4994252;28;20471;-74
2023/08/21 09:15:32;;;;;;;10.00;7.57;;;;;;;28.40;84.50;100949.13;4994758;28;20110;-74
2023/08/21 09:18:14;;;;;;;9.10;8.02;;;;;;;28.57;85.35;100953.50;4997190;28;20052;-74
2023/08/21 09:20:45;;;;;;;11.00;8.32;;;;;;;28.65;83.79;100948.03;4974284;28;20045;-74
2023/08/21 09:23:19;;;;;;;9.27;7.47;;;;;;;28.66;85.83;100940.69;5006732;28;20072;-74
2023/08/21 09:25:50;;;;;;;8.00;7.18;;;;;;;28.81;84.38;100945.25;4993505;28;20602;-74
2023/08/21 09:28:21;;;;;;;7.93;7.13;;;;;;;28.97;81.55;100938.88;4974413;28;20108;-75
2023/08/21 09:30:53;;;;;;;10.65;7.30;;;;;;;29.00;81.19;100935.81;4989454;28;20040;-75
2023/08/21 09:33:25;;;;;;;10.60;8.00;;;;;;;28.96;82.78;100926.31;4992515;28;20108;-73
2023/08/21 09:35:57;;;;;;;8.10;7.30;;;;;;;28.95;82.59;100935.53;5009952;28;20049;-74
2023/08/21 09:38:30;;;;;;;9.50;7.40;;;;;;;29.03;82.65;100940.06;4972916;28;20069;-74
2023/08/21 09:41:00;;;;;;;9.10;7.28;;;;;;;29.11;83.46;100934.59;4988134;28;20053;-74
2023/08/21 09:43:30;;;;;;;10.43;8.43;;;;;;;29.20;83.49;100933.50;4980037;28;20056;-74
2023/08/21 09:46:00;;;;;;;8.70;7.90;;;;;;;29.30;79.74;100932.22;5006025;28;20514;-74
2023/08/21 09:48:31;;;;;;;9.25;8.32;;;;;;;29.25;79.19;100920.19;5002889;28;20054;-75
2023/08/21 09:51:04;;;;;;;10.60;7.97;;;;;;;29.26;80.60;100927.31;4972316;28;20502;-73
2023/08/21 09:53:32;;;;;;;10.18;8.32;;;;;;;29.24;81.97;100930.22;4977212;28;20057;-73
2023/08/21 09:56:03;;;;;;;10.45;8.32;;;;;;;29.37;79.78;100931.50;4988119;28;20054;-74
2023/08/21 09:58:32;;;;;;;9.18;6.97;;;;;;;29.51;78.10;100922.56;4989398;28;20057;-74
2023/08/21 10:01:00;;;;;;;8.55;6.68;;;;;;;29.72;74.20;100927.34;4982871;28;20426;-74
2023/08/21 10:03:32;;;;;;;8.10;7.25;;;;;;;29.78;73.59;100926.59;4991498;28;20117;-73
2023/08/21 10:06:03;;;;;;;8.98;7.63;;;;;;;29.78;72.68;100923.88;4991850;28;20064;-73
2023/08/21 10:08:37;;;;;;;8.57;6.80;;;;;;;29.92;69.45;100923.91;5012155;28;20050;-74
2023/08/21 10:11:07;;;;;;;7.63;6.82;;;;;;;30.00;67.97;100923.03;4992938;28;20122;-74
2023/08/21 10:13:39;;;;;;;6.97;6.25;;;;;;;30.16;66.68;100919.28;4993491;28;20042;-74
2023/08/21 10:16:11;;;;;;;7.25;6.30;;;;;;;30.27;65.16;100924.28;4992632;28;20487;-74
2023/08/21 10:18:44;;;;;;;7.90;6.68;;;;;;;30.35;64.18;100916.00;4996273;28;20049;-74
2023/08/21 10:21:16;;;;;;;6.80;6.10;;;;;;;30.48;60.79;100923.53;4997412;28;20045;-74
2023/08/21 10:23:47;;;;;;;;;;;;;;;30.52;59.79;100922.13;4996980;28;20042;-74
2023/08/21 10:26:17;;;;;;;8.38;6.13;;;;;;;30.52;59.48;100914.78;4998163;28;19989;-76
2023/08/21 10:28:50;;;;;;;7.03;5.60;;;;;;;30.49;57.74;100903.38;4991800;28;20050;-75
2023/08/21 10:31:34;;;;;;;6.45;5.20;;;;;;;30.56;57.30;100905.19;5010886;28;20049;-73
2023/08/21 10:34:08;;;;;;;6.90;4.88;;;;;;;30.64;56.18;100902.38;5011520;28;20391;-77
2023/08/21 10:37:09;;;;;;;6.20;4.88;;;;;;;30.79;57.60;100910.53;5011502;28;20065;-74
2023/08/21 10:39:39;;;;;;;8.88;5.90;;;;;;;30.90;59.44;100910.03;5004872;28;20054;-73
2023/08/21 10:42:09;;;;;;;;;;;;;;;30.99;60.44;100911.66;4985279;28;20076;-74
2023/08/21 10:44:51;;;;;;;9.38;6.80;;;;;;;30.75;62.04;100908.38;5011762;28;20011;-74
2023/08/21 10:47:21;;;;;;;8.98;6.70;;;;;;;30.66;61.50;100910.38;4994405;28;20052;-74
2023/08/21 10:49:57;;;;;;;12.30;6.72;;;;;;;30.68;59.00;100900.97;5007255;28;20056;-74
2023/08/21 10:52:27;;;;;;;10.38;5.88;;;;;;;30.89;59.15;100904.75;5003523;28;20046;-73
2023/08/21 10:55:06;;;;;;;8.90;5.45;;;;;;;31.12;55.35;100899.19;4988499;28;20050;-74
2023/08/21 10:57:38;;;;;;;8.15;4.95;;;;;;;31.21;54.73;100887.91;5015836;28;20045;-73
2023/08/21 11:00:11;;;;;;;10.65;5.63;;;;;;;31.38;56.31;100888.50;5010886;28;20927;-73
2023/08/21 11:02:42;;;;;;;6.75;5.00;;;;;;;31.55;55.43;100879.00;5039053;28;20060;-73
2023/08/21 11:05:14;;;;;;;5.93;4.55;;;;;;;31.60;51.46;100892.09;5012893;28;20061;-73
2023/08/21 11:07:45;;;;;;;7.13;5.20;;;;;;;31.47;52.17;100890.09;5014308;28;20045;-73
2023/08/21 11:10:14;;;;;;;5.55;4.50;;;;;;;31.54;51.62;100881.91;5027203;28;20037;-73
2023/08/21 11:12:52;;;;;;;6.10;3.55;;;;;;;31.32;48.83;100890.16;5008500;28;20053;-73
2023/08/21 11:15:23;;;;;;;5.33;3.70;;;;;;;31.41;50.32;100890.00;5040769;28;20041;-74
2023/08/21 11:17:56;;;;;;;4.55;3.08;;;;;;;31.65;47.42;100893.22;5001859;28;20045;-74
2023/08/21 11:20:30;;;;;;;4.20;2.70;;;;;;;31.73;45.14;100882.13;5034217;28;20069;-76
2023/08/21 11:22:59;;;;;;;3.35;2.78;;;;;;;31.69;45.57;100886.31;4991553;28;20049;-73
2023/08/21 11:25:31;;;;;;;4.22;2.53;;;;;;;31.83;45.07;100880.94;5019811;28;20053;-73
2023/08/21 11:28:02;;;;;;;4.82;3.38;;;;;;;31.96;44.85;100886.50;5034481;28;20115;-73
2023/08/21 11:30:35;;;;;;;4.43;3.17;;;;;;;32.05;45.45;100883.44;5025573;28;20061;-75